Time;durP1;ratioP1;P1;durP2;ratioP2;P2;SDS_P1;SDS_P2;PMS_P1;PMS_P2;Temp;Humidity;BMP_temperature;BMP_pressure;BME280_temperature;BME280_humidity;BME280_pressure;Samples;Min_cycle;Max_cycle;Signal;HPM_P1;HPM_P2
2022/06/04 00:04:30;;;;;;;11.55;9.38;;;;;;;17.77;100.00;100329.53;20913541;28;20057;-73
2022/06/04 00:24:53;;;;;;;12.57;8.48;;;;;;;17.49;100.00;100373.16;20913532;28;20513;-74
2022/06/04 00:34:54;;;;;;;9.90;8.82;;;;;;;17.31;100.00;100358.09;20911659;28;20072;-73
2022/06/04 00:45:20;;;;;;;15.43;11.18;;;;;;;17.10;100.00;100350.16;20910491;28;20441;-74
2022/06/04 00:55:22;;;;;;;13.15;11.73;;;;;;;17.05;100.00;100324.81;20911217;28;20048;-72
2022/06/04 01:05:58;;;;;;;13.77;11.48;;;;;;;17.12;100.00;100343.00;20910090;28;20058;-74
2022/06/04 01:16:11;;;;;;;10.70;9.15;;;;;;;17.00;100.00;100338.22;20910100;28;20045;-74
2022/06/04 01:26:21;;;;;;;11.25;9.63;;;;;;;16.94;100.00;100343.78;20909574;28;20080;-75
2022/06/04 01:36:32;;;;;;;11.07;8.73;;;;;;;16.99;100.00;100340.97;20909160;28;20060;-74
2022/06/04 01:46:45;;;;;;;13.43;9.65;;;;;;;16.88;100.00;100341.41;20908901;28;20412;-74
2022/06/04 01:56:53;;;;;;;12.82;9.07;;;;;;;16.75;100.00;100361.38;20916575;28;20486;-73
2022/06/04 02:07:30;;;;;;;10.32;8.57;;;;;;;16.70;100.00;100373.88;20908244;28;20079;-76
2022/06/04 02:17:32;;;;;;;12.27;8.40;;;;;;;16.70;100.00;100355.38;20907705;28;20056;-75
2022/06/04 02:27:35;;;;;;;12.35;8.70;;;;;;;16.37;100.00;100332.06;20918826;28;20049;-73
2022/06/04 02:37:54;;;;;;;12.98;9.93;;;;;;;16.26;100.00;100329.00;20922591;28;20498;-74
2022/06/04 02:48:01;;;;;;;13.27;11.43;;;;;;;16.39;100.00;100323.16;20920304;28;20064;-77
2022/06/04 02:58:10;;;;;;;12.75;10.63;;;;;;;16.45;100.00;100310.59;20921090;28;20049;-74
2022/06/04 03:08:17;;;;;;;17.03;12.17;;;;;;;16.38;100.00;100297.66;20918554;28;20045;-73
2022/06/04 03:18:19;;;;;;;15.35;12.73;;;;;;;16.38;100.00;100313.50;20919037;28;20333;-73
2022/06/04 03:28:21;;;;;;;14.43;12.25;;;;;;;16.53;100.00;100333.16;20918102;28;20921;-76
2022/06/04 03:38:25;;;;;;;;;;;;;;;16.58;100.00;100352.34;20915539;28;20493;-74
2022/06/04 03:48:27;;;;;;;13.90;11.63;;;;;;;16.59;100.00;100354.03;20916017;28;20285;-74
2022/06/04 03:58:30;;;;;;;13.52;11.45;;;;;;;16.54;100.00;100352.53;20914939;28;20049;-74
2022/06/04 04:08:31;;;;;;;15.05;11.23;;;;;;;16.49;100.00;100363.28;20912917;28;20102;-74
2022/06/04 04:18:34;;;;;;;19.45;12.98;;;;;;;16.81;100.00;100354.03;21148229;22;20097;-67
2022/06/04 04:28:36;;;;;;;16.30;12.43;;;;;;;16.96;100.00;100339.31;21073287;28;20058;-66
2022/06/04 04:38:37;;;;;;;14.95;10.27;;;;;;;18.74;100.00;100370.84;21071939;28;20128;-65
2022/06/04 04:48:40;;;;;;;11.88;9.23;;;;;;;20.08;100.00;100395.66;21071471;28;20424;-65
2022/06/04 04:58:42;;;;;;;10.93;8.57;;;;;;;19.10;100.00;100402.63;21071165;28;20135;-65
2022/06/04 05:08:45;;;;;;;10.70;8.65;;;;;;;19.07;100.00;100427.53;21069369;28;20052;-65
2022/06/04 05:18:47;;;;;;;9.23;7.13;;;;;;;19.61;100.00;100438.94;21069644;28;20607;-65
2022/06/04 05:28:50;;;;;;;10.27;8.02;;;;;;;19.25;100.00;100456.72;21068798;28;20064;-65
2022/06/04 05:38:51;;;;;;;10.02;8.40;;;;;;;18.98;100.00;100459.84;21067888;28;20051;-65
2022/06/04 05:48:53;;;;;;;11.68;7.70;;;;;;;18.78;100.00;100459.94;21067883;28;20093;-65
2022/06/04 05:58:56;;;;;;;11.43;7.25;;;;;;;18.82;100.00;100474.75;21066422;28;20044;-66
2022/06/04 06:09:01;;;;;;;11.50;7.50;;;;;;;18.98;100.00;100502.28;21066270;28;20466;-65
2022/06/04 06:19:03;;;;;;;11.85;9.95;;;;;;;19.01;100.00;100496.81;21066282;28;20125;-65
2022/06/04 06:29:04;;;;;;;14.20;11.63;;;;;;;19.35;100.00;100489.81;21065880;28;20055;-65
2022/06/04 06:39:06;;;;;;;15.35;11.32;;;;;;;19.82;100.00;100490.06;21065443;28;20044;-65
2022/06/04 06:49:13;;;;;;;18.48;14.93;;;;;;;19.89;100.00;100485.31;21065265;28;20051;-65
2022/06/04 06:59:15;;;;;;;17.95;14.50;;;;;;;19.72;100.00;100467.56;21065015;28;20048;-65
2022/06/04 07:09:18;;;;;;;17.55;13.95;;;;;;;20.07;100.00;100452.41;21020765;28;20068;-65
2022/06/04 07:19:22;;;;;;;21.33;13.82;;;;;;;20.27;100.00;100451.34;21058821;28;20098;-66
2022/06/04 07:29:24;;;;;;;18.80;13.60;;;;;;;20.42;100.00;100447.81;20986509;28;20057;-65
2022/06/04 07:39:25;;;;;;;15.75;13.98;;;;;;;20.95;100.00;100451.06;21015725;28;20128;-65
2022/06/04 07:49:27;;;;;;;17.80;15.75;;;;;;;20.99;98.94;100442.81;21069424;28;20443;-65
2022/06/04 07:59:28;;;;;;;19.50;17.40;;;;;;;20.70;100.00;100459.59;21068889;28;20088;-65
2022/06/04 08:09:33;;;;;;;19.30;16.35;;;;;;;20.22;100.00;100462.22;21067614;28;20043;-65
2022/06/04 08:19:37;;;;;;;16.60;12.85;;;;;;;20.44;100.00;100487.63;20984457;28;20049;-67
2022/06/04 08:29:38;;;;;;;16.20;14.50;;;;;;;20.21;100.00;100500.38;20982436;28;20048;-65
2022/06/04 08:39:48;;;;;;;17.80;15.32;;;;;;;20.07;100.00;100513.53;20980001;28;20497;-65
2022/06/04 08:49:59;;;;;;;20.50;16.08;;;;;;;20.10;100.00;100517.84;20980688;28;20045;-65
2022/06/04 09:00:11;;;;;;;17.08;15.25;;;;;;;19.91;100.00;100534.75;20980035;28;20056;-65
2022/06/04 09:10:22;;;;;;;17.25;15.45;;;;;;;20.09;100.00;100540.06;20982900;28;20105;-65
2022/06/04 09:20:41;;;;;;;18.20;15.25;;;;;;;20.21;100.00;100564.16;21062125;28;20407;-65
2022/06/04 09:30:57;;;;;;;16.80;14.00;;;;;;;20.27;100.00;100573.66;21060191;28;20052;-65
2022/06/04 09:41:00;;;;;;;16.75;14.25;;;;;;;20.36;100.00;100580.25;21059444;28;20040;-68
2022/06/04 09:51:06;;;;;;;15.25;12.98;;;;;;;20.89;100.00;100573.88;21060547;28;20478;-69
2022/06/04 10:01:20;;;;;;;15.48;13.85;;;;;;;20.95;100.00;100592.16;21059611;28;20048;-68
2022/06/04 10:11:24;;;;;;;13.03;11.07;;;;;;;21.59;100.00;100579.66;21046486;28;20052;-67
2022/06/04 10:21:28;;;;;;;16.15;13.50;;;;;;;21.73;100.00;100569.88;20975848;28;20044;-68
2022/06/04 10:31:56;;;;;;;17.38;15.25;;;;;;;21.77;100.00;100567.91;20974503;28;20056;-67
2022/06/04 10:42:13;;;;;;;14.02;11.57;;;;;;;22.27;98.74;100578.19;20974602;28;20094;-67
2022/06/04 10:52:33;;;;;;;14.75;13.02;;;;;;;22.37;95.54;100590.97;20989807;28;20106;-68
2022/06/04 11:02:43;;;;;;;18.27;15.00;;;;;;;21.69;100.00;100602.13;20988095;28;20045;-69
2022/06/04 11:13:04;;;;;;;20.13;16.73;;;;;;;21.75;99.70;100597.31;21014057;28;20139;-65
2022/06/04 11:23:28;;;;;;;19.73;16.05;;;;;;;22.64;96.17;100602.59;21071866;28;20085;-65
2022/06/04 11:33:36;;;;;;;17.73;15.25;;;;;;;23.03;92.93;100587.69;21069600;28;20048;-66
2022/06/04 11:44:24;;;;;;;17.67;14.68;;;;;;;23.30;91.89;100569.00;21068014;28;20381;-65
2022/06/04 11:55:09;;;;;;;18.65;14.70;;;;;;;23.68;87.27;100552.25;21067306;28;20051;-65
2022/06/04 12:05:35;;;;;;;17.73;15.82;;;;;;;23.53;87.52;100548.78;21067072;28;20051;-64
2022/06/04 12:15:50;;;;;;;21.05;17.63;;;;;;;24.43;84.66;100539.03;21017992;28;20052;-65
2022/06/04 12:26:01;;;;;;;19.73;17.13;;;;;;;24.03;86.82;100541.81;20981429;28;20139;-65
2022/06/04 12:36:09;;;;;;;20.88;17.65;;;;;;;23.85;82.99;100548.41;20980259;28;20471;-65
2022/06/04 12:46:21;;;;;;;20.02;15.73;;;;;;;23.85;86.24;100543.06;20980868;28;20051;-65
2022/06/04 12:56:34;;;;;;;15.23;12.25;;;;;;;24.09;82.87;100529.81;20979303;28;20044;-65
2022/06/04 13:06:45;;;;;;;14.00;12.25;;;;;;;24.19;80.04;100545.09;20978747;28;20052;-65
2022/06/04 13:16:53;;;;;;;14.57;13.05;;;;;;;24.29;81.26;100554.22;21036459;28;20052;-65
2022/06/04 13:27:06;;;;;;;13.65;11.38;;;;;;;24.14;81.59;100560.63;21061195;28;20051;-65
2022/06/04 13:37:24;;;;;;;12.53;8.33;;;;;;;24.58;77.62;100540.63;21059022;28;20043;-65
2022/06/04 13:47:29;;;;;;;10.40;9.27;;;;;;;24.93;80.76;100540.72;21059124;28;20416;-65
2022/06/04 13:57:37;;;;;;;13.75;10.98;;;;;;;24.81;79.01;100539.78;21059662;28;20054;-65
2022/06/04 14:07:41;;;;;;;10.65;8.93;;;;;;;25.11;77.58;100525.16;21058677;28;20105;-65
2022/06/04 14:17:46;;;;;;;11.57;8.57;;;;;;;25.66;74.49;100515.59;20994161;28;20405;-64
2022/06/04 14:28:21;;;;;;;10.88;8.50;;;;;;;25.58;74.55;100513.53;20990604;28;20500;-65
2022/06/04 14:38:25;;;;;;;10.52;9.43;;;;;;;26.01;72.45;100509.34;20989525;28;20044;-65
2022/06/04 14:49:06;;;;;;;12.10;9.45;;;;;;;25.68;75.45;100511.00;20988650;28;20056;-65
2022/06/04 14:59:28;;;;;;;10.82;8.57;;;;;;;25.72;75.31;100498.19;20988923;28;20056;-65
2022/06/04 15:09:56;;;;;;;9.30;7.90;;;;;;;26.03;70.92;100489.50;20987574;28;20102;-64
2022/06/04 15:20:06;;;;;;;10.35;7.72;;;;;;;26.19;69.42;100486.44;20987721;28;20555;-65
2022/06/04 15:40:58;;;;;;;10.65;8.75;;;;;;;26.51;69.90;100472.31;20984761;28;20047;-64
2022/06/04 16:01:27;;;;;;;10.23;8.88;;;;;;;26.48;66.59;100453.75;20983312;28;20493;-67
2022/06/04 16:11:54;;;;;;;10.35;7.95;;;;;;;26.95;64.48;100435.53;20996715;28;20493;-67
2022/06/04 16:22:02;;;;;;;10.52;8.48;;;;;;;26.43;66.43;100437.16;21066587;28;20062;-67
2022/06/04 16:32:15;;;;;;;10.65;9.30;;;;;;;26.71;65.23;100415.09;21064263;28;20125;-69
2022/06/04 16:42:24;;;;;;;11.57;9.48;;;;;;;26.59;64.53;100424.19;21062877;28;20048;-68
2022/06/04 16:52:29;;;;;;;12.43;8.70;;;;;;;26.47;66.01;100420.66;21063694;28;20415;-68
2022/06/04 17:02:39;;;;;;;12.05;8.98;;;;;;;26.42;65.16;100422.00;21063099;28;20424;-68
2022/06/04 17:13:13;;;;;;;10.15;8.27;;;;;;;26.39;66.07;100422.22;21037702;28;20056;-68
2022/06/04 17:23:32;;;;;;;10.30;8.10;;;;;;;25.89;69.62;100429.84;20977250;28;20041;-69
2022/06/04 17:34:05;;;;;;;10.85;7.63;;;;;;;26.15;69.10;100427.75;20975681;28;20045;-69
2022/06/04 17:44:06;;;;;;;11.32;7.10;;;;;;;25.83;70.38;100434.72;20975130;28;20059;-69
2022/06/04 17:54:09;;;;;;;11.32;7.30;;;;;;;25.70;71.45;100439.31;20975138;28;20044;-69
2022/06/04 18:04:11;;;;;;;9.47;6.93;;;;;;;25.73;73.25;100441.75;20974916;28;20547;-71
2022/06/04 18:14:12;;;;;;;8.93;6.50;;;;;;;25.61;72.10;100442.72;21012454;28;20094;-68
2022/06/04 18:24:14;;;;;;;8.02;5.75;;;;;;;25.14;75.18;100449.88;21058912;28;20422;-73
2022/06/04 18:34:16;;;;;;;8.40;6.22;;;;;;;24.96;76.58;100432.47;21057713;28;20048;-70
2022/06/04 18:54:43;;;;;;;9.05;5.50;;;;;;;24.00;80.68;100441.25;21058503;28;20077;-68
2022/06/04 19:04:45;;;;;;;8.43;5.28;;;;;;;23.58;82.18;100445.09;21058210;28;20105;-70
2022/06/04 19:15:10;;;;;;;7.63;5.40;;;;;;;23.33;83.46;100437.00;21073179;28;20048;-68
2022/06/04 19:25:12;;;;;;;10.82;5.65;;;;;;;23.10;84.23;100442.13;21070694;28;20048;-67
2022/06/04 19:35:13;;;;;;;7.88;5.65;;;;;;;22.89;85.63;100441.72;21069102;28;20102;-67
2022/06/04 19:45:15;;;;;;;7.18;6.07;;;;;;;22.72;86.88;100436.63;21067768;28;20416;-70
2022/06/04 19:55:19;;;;;;;9.48;6.45;;;;;;;22.40;88.85;100444.03;21067940;28;20040;-69
2022/06/04 20:05:21;;;;;;;8.25;5.88;;;;;;;21.98;91.35;100427.09;21066921;28;20611;-68
2022/06/04 20:15:23;;;;;;;8.93;5.70;;;;;;;21.78;92.03;100442.53;21018246;28;20190;-69
2022/06/04 20:25:25;;;;;;;8.13;6.13;;;;;;;21.63;93.44;100456.78;20982675;28;20060;-65
2022/06/04 20:35:27;;;;;;;8.63;5.72;;;;;;;21.49;93.85;100454.97;20980968;28;20098;-65
2022/06/04 20:45:28;;;;;;;10.57;7.30;;;;;;;21.22;95.87;100445.91;20979018;28;20048;-65
2022/06/04 20:55:30;;;;;;;9.88;7.18;;;;;;;21.10;96.85;100402.25;20979763;28;20086;-65
2022/06/04 21:05:32;;;;;;;8.40;7.25;;;;;;;20.94;97.77;100409.44;20978422;28;20056;-65
2022/06/04 21:15:34;;;;;;;9.88;7.38;;;;;;;20.83;98.17;100414.50;21026464;28;20549;-65
2022/06/04 21:25:41;;;;;;;9.05;6.75;;;;;;;20.67;99.03;100410.06;21061228;28;20411;-65
2022/06/04 21:46:10;;;;;;;10.10;6.55;;;;;;;20.52;98.83;100400.31;21060194;28;20488;-65
2022/06/04 21:56:11;;;;;;;7.75;5.78;;;;;;;20.48;97.93;100393.44;21060311;28;20040;-65
2022/06/04 22:06:13;;;;;;;6.97;6.22;;;;;;;20.24;99.29;100377.91;21060843;28;20048;-65
2022/06/04 22:16:16;;;;;;;8.55;5.40;;;;;;;20.24;98.48;100406.28;21065460;28;20055;-66
2022/06/04 22:26:19;;;;;;;7.50;5.30;;;;;;;20.21;97.69;100386.03;21065352;28;20136;-65
2022/06/04 22:36:21;;;;;;;5.82;4.38;;;;;;;20.16;97.82;100395.22;21062372;28;20056;-66
2022/06/04 22:46:24;;;;;;;7.18;4.95;;;;;;;20.09;97.92;100370.78;21078835;28;20059;-65
2022/06/04 22:56:26;;;;;;;7.80;5.45;;;;;;;20.04;98.03;100367.53;21081081;28;20044;-65
2022/06/04 23:06:27;;;;;;;6.20;5.18;;;;;;;19.97;98.83;100361.66;21079319;28;20109;-65
2022/06/04 23:26:49;;;;;;;6.72;4.85;;;;;;;20.06;98.82;100360.31;21078228;28;20048;-65
2022/06/04 23:36:53;;;;;;;8.25;5.82;;;;;;;20.12;98.89;100354.69;21076725;28;20052;-65
2022/06/04 23:46:54;;;;;;;9.03;5.73;;;;;;;20.08;99.60;100355.78;21075489;28;20474;-65
2022/06/04 23:56:56;;;;;;;8.73;6.40;;;;;;;19.94;100.00;100377.81;21074849;28;20131;-67
